createdAt,value
2018-03-23T00:00:55.651Z,86.25
2018-03-23T00:01:55.514Z,85.49
2018-03-23T00:02:55.380Z,85.40
2018-03-23T00:03:55.244Z,85.11
2018-03-23T00:04:55.110Z,86.34
2018-03-23T00:05:54.974Z,86.63
2018-03-23T00:06:54.849Z,86.44
2018-03-23T00:07:54.706Z,85.45
2018-03-23T00:08:54.572Z,84.51
2018-03-23T00:09:54.435Z,83.37
2018-03-23T00:10:54.300Z,83.18
2018-03-23T00:11:54.167Z,83.09
2018-03-23T00:12:54.034Z,83.84
2018-03-23T00:13:53.897Z,82.53
2018-03-23T00:14:53.763Z,81.87
2018-03-23T00:15:53.627Z,81.21
2018-03-23T00:16:53.496Z,80.83
2018-03-23T00:17:53.358Z,80.54
2018-03-23T00:18:53.226Z,80.54
2018-03-23T00:19:53.090Z,81.02
2018-03-23T00:20:52.958Z,81.68
2018-03-23T00:21:52.819Z,83.56
2018-03-23T00:22:52.684Z,83.33
2018-03-23T00:23:52.550Z,80.64
2018-03-23T00:24:52.414Z,79.98
2018-03-23T00:25:52.280Z,79.98
2018-03-23T00:26:52.146Z,79.79
2018-03-23T00:27:52.011Z,79.88
2018-03-23T00:28:51.876Z,79.50
2018-03-23T00:29:51.741Z,79.32
2018-03-23T00:30:51.606Z,78.19
2018-03-23T00:31:51.472Z,77.81
2018-03-23T00:32:51.338Z,78.19
2018-03-23T00:33:51.202Z,78.23
2018-03-23T00:34:51.067Z,77.91
2018-03-23T00:35:50.933Z,79.13
2018-03-23T00:36:50.798Z,79.17
2018-03-23T00:37:50.662Z,79.41
2018-03-23T00:38:50.530Z,79.69
2018-03-23T00:39:50.394Z,78.56
2018-03-23T00:40:50.259Z,78.38
2018-03-23T00:41:50.125Z,78.19
2018-03-23T00:42:50.001Z,77.72
2018-03-23T00:43:49.854Z,77.06
2018-03-23T00:44:49.719Z,76.87
2018-03-23T00:45:49.587Z,76.49
2018-03-23T00:46:49.451Z,76.40
2018-03-23T00:47:49.315Z,75.92
2018-03-23T00:48:49.182Z,75.64
2018-03-23T00:49:49.044Z,76.40
2018-03-23T00:50:48.925Z,75.83
2018-03-23T00:51:48.773Z,75.45
2018-03-23T00:52:48.642Z,75.17
2018-03-23T00:53:48.506Z,74.88
2018-03-23T00:54:48.372Z,75.45
2018-03-23T00:55:48.233Z,76.58
2018-03-23T00:56:48.103Z,76.40
2018-03-23T00:57:47.966Z,76.21
2018-03-23T00:58:47.836Z,75.73
2018-03-23T00:59:47.699Z,74.88
2018-03-23T01:00:47.563Z,74.51
2018-03-23T01:01:47.428Z,74.41
2018-03-23T01:02:47.292Z,74.22
2018-03-23T01:03:47.157Z,73.94
2018-03-23T01:04:47.021Z,73.94
2018-03-23T01:05:46.886Z,74.13
2018-03-23T01:06:46.758Z,74.04
2018-03-23T01:07:46.617Z,74.51
2018-03-23T01:08:46.483Z,75.36
2018-03-23T01:09:46.348Z,75.54
2018-03-23T01:10:46.212Z,75.45
2018-03-23T01:11:46.080Z,76.21
2018-03-23T01:12:45.947Z,76.40
2018-03-23T01:13:45.812Z,76.58
2018-03-23T01:14:45.676Z,76.77
2018-03-23T01:15:45.541Z,76.58
2018-03-23T01:16:45.403Z,76.58
2018-03-23T01:17:45.267Z,78.00
2018-03-23T01:18:45.136Z,77.91
2018-03-23T01:19:44.997Z,78.75
2018-03-23T01:20:44.866Z,79.03
2018-03-23T01:21:44.739Z,78.85
2018-03-23T01:22:44.593Z,78.00
2018-03-23T01:23:44.459Z,77.91
2018-03-23T01:24:44.334Z,76.49
2018-03-23T01:25:44.189Z,76.77
2018-03-23T01:26:44.054Z,77.06
2018-03-23T01:27:43.919Z,76.21
2018-03-23T01:28:43.786Z,76.30
2018-03-23T01:29:43.655Z,76.40
2018-03-23T01:30:43.515Z,77.62
2018-03-23T01:31:43.380Z,77.62
2018-03-23T01:32:43.246Z,77.25
2018-03-23T01:33:43.111Z,77.53
2018-03-23T01:34:42.974Z,77.34
2018-03-23T01:35:42.841Z,77.62
2018-03-23T01:36:42.707Z,77.81
2018-03-23T01:37:42.571Z,78.00
2018-03-23T01:38:42.437Z,79.03
2018-03-23T01:39:42.307Z,79.69
2018-03-23T01:40:42.164Z,78.94
2018-03-23T01:41:42.030Z,79.03
2018-03-23T01:42:41.895Z,78.85
2018-03-23T01:43:41.763Z,78.19
2018-03-23T01:44:41.626Z,78.19
2018-03-23T01:45:41.490Z,77.72
2018-03-23T01:46:41.358Z,77.34
2018-03-23T01:47:41.223Z,76.87
2018-03-23T01:48:41.085Z,76.96
2018-03-23T01:49:40.950Z,77.25
2018-03-23T01:50:40.814Z,76.40
2018-03-23T01:51:40.682Z,76.49
2018-03-23T01:52:40.553Z,76.96
2018-03-23T01:53:40.409Z,77.72
2018-03-23T01:54:40.276Z,79.69
2018-03-23T01:55:40.146Z,79.60
2018-03-23T01:56:40.008Z,79.60
2018-03-23T01:57:39.907Z,80.17
2018-03-23T01:58:39.738Z,79.79
2018-03-23T01:59:39.605Z,79.69
2018-03-23T02:00:39.469Z,79.22
2018-03-23T02:01:39.333Z,79.32
2018-03-23T02:02:39.196Z,79.69
2018-03-23T02:03:39.065Z,80.92
2018-03-23T02:04:38.928Z,81.91
2018-03-23T02:05:38.794Z,82.10
2018-03-23T02:06:38.659Z,82.00
2018-03-23T02:07:38.526Z,83.14
2018-03-23T02:08:38.389Z,83.61
2018-03-23T02:09:38.253Z,84.74
2018-03-23T02:10:38.119Z,85.11
2018-03-23T02:11:37.984Z,85.49
2018-03-23T02:12:37.850Z,86.25
2018-03-23T02:13:37.716Z,87.85
2018-03-23T02:14:37.583Z,87.57
2018-03-23T02:15:37.448Z,86.91
2018-03-23T02:16:37.312Z,86.06
2018-03-23T02:17:37.177Z,86.25
2018-03-23T02:18:37.044Z,86.82
2018-03-23T02:19:36.909Z,89.08
2018-03-23T02:20:36.775Z,90.12
2018-03-23T02:21:36.651Z,89.36
2018-03-23T02:22:36.506Z,87.57
2018-03-23T02:23:36.370Z,86.44
2018-03-23T02:24:36.235Z,85.77
2018-03-23T02:25:36.100Z,85.30
2018-03-23T02:26:35.968Z,84.36
2018-03-23T02:27:35.834Z,84.83
2018-03-23T02:28:35.700Z,84.64
2018-03-23T02:29:35.568Z,83.42
2018-03-23T02:30:35.432Z,85.21
2018-03-23T02:31:35.298Z,85.40
2018-03-23T02:32:35.163Z,84.17
2018-03-23T02:33:35.029Z,83.00
2018-03-23T02:34:34.892Z,81.49
2018-03-23T02:35:34.758Z,79.79
2018-03-23T02:36:34.622Z,79.13
2018-03-23T02:37:34.487Z,78.75
2018-03-23T02:38:34.354Z,78.47
2018-03-23T02:39:34.222Z,78.56
2018-03-23T02:40:34.087Z,78.00
2018-03-23T02:41:33.951Z,77.53
2018-03-23T02:42:33.818Z,77.62
2018-03-23T02:43:33.681Z,77.34
2018-03-23T02:44:33.545Z,76.87
2018-03-23T02:45:33.411Z,76.58
2018-03-23T02:46:33.273Z,76.68
2018-03-23T02:47:33.144Z,76.49
2018-03-23T02:48:33.007Z,77.37
2018-03-23T02:49:32.873Z,78.66
2018-03-23T02:50:32.737Z,80.68
2018-03-23T02:51:32.601Z,81.21
2018-03-23T02:52:32.470Z,81.96
2018-03-23T02:53:32.340Z,83.47
2018-03-23T02:54:32.211Z,83.18
2018-03-23T02:55:32.062Z,83.00
2018-03-23T02:56:31.929Z,81.21
2018-03-23T02:57:31.792Z,80.07
2018-03-23T02:58:31.658Z,78.75
2018-03-23T02:59:31.525Z,77.81
2018-03-23T03:00:31.389Z,76.87
2018-03-23T03:01:31.255Z,76.11
2018-03-23T03:02:31.121Z,75.45
2018-03-23T03:03:30.992Z,75.07
2018-03-23T03:04:30.850Z,73.85
2018-03-23T03:05:30.712Z,73.85
2018-03-23T03:06:30.578Z,73.47
2018-03-23T03:07:30.453Z,73.19
2018-03-23T03:08:30.310Z,72.81
2018-03-23T03:09:30.174Z,73.19
2018-03-23T03:10:30.038Z,73.00
2018-03-23T03:11:29.906Z,73.38
2018-03-23T03:12:29.769Z,73.75
2018-03-23T03:13:29.632Z,74.13
2018-03-23T03:14:29.497Z,75.07
2018-03-23T03:15:29.365Z,75.45
2018-03-23T03:16:29.232Z,75.78
2018-03-23T03:17:29.091Z,75.54
2018-03-23T03:18:28.959Z,75.96
2018-03-23T03:19:28.822Z,76.30
2018-03-23T03:20:28.691Z,76.87
2018-03-23T03:21:28.554Z,76.58
2018-03-23T03:22:28.422Z,77.19
2018-03-23T03:23:28.284Z,77.62
2018-03-23T03:24:28.152Z,77.94
2018-03-23T03:25:28.018Z,78.47
2018-03-23T03:26:27.880Z,78.75
2018-03-23T03:27:27.743Z,79.03
2018-03-23T03:28:27.611Z,80.26
2018-03-23T03:29:27.474Z,79.98
2018-03-23T03:30:27.341Z,80.26
2018-03-23T03:31:27.206Z,80.54
2018-03-23T03:32:27.071Z,81.30
2018-03-23T03:33:26.934Z,81.68
2018-03-23T03:34:26.803Z,81.53
2018-03-23T03:35:26.674Z,81.24
2018-03-23T03:36:26.530Z,81.53
2018-03-23T03:37:26.396Z,82.38
2018-03-23T03:38:26.263Z,83.70
2018-03-23T03:39:26.128Z,83.98
2018-03-23T03:40:25.995Z,82.95
2018-03-23T03:41:25.861Z,83.33
2018-03-23T03:42:25.725Z,84.27
2018-03-23T03:43:25.590Z,84.22
2018-03-23T03:44:25.457Z,83.42
2018-03-23T03:45:25.321Z,81.81
2018-03-23T03:46:25.184Z,80.30
2018-03-23T03:47:25.050Z,79.27
2018-03-23T03:48:24.923Z,77.37
2018-03-23T03:49:24.779Z,76.58
2018-03-23T03:50:24.644Z,76.43
2018-03-23T03:51:24.514Z,75.87
2018-03-23T03:52:24.376Z,75.59
2018-03-23T03:53:24.241Z,75.17
2018-03-23T03:54:24.107Z,75.07
2018-03-23T03:55:23.969Z,75.36
2018-03-23T03:56:23.836Z,75.45
2018-03-23T03:57:23.702Z,76.02
2018-03-23T03:58:23.566Z,75.45
2018-03-23T03:59:23.432Z,75.07
2018-03-23T04:00:23.297Z,75.21
2018-03-23T04:01:23.164Z,75.26
2018-03-23T04:02:23.028Z,75.78
2018-03-23T04:03:22.899Z,75.54
2018-03-23T04:04:22.771Z,75.26
2018-03-23T04:05:22.623Z,75.54
2018-03-23T04:06:22.490Z,76.30
2018-03-23T04:07:22.353Z,76.96
2018-03-23T04:08:22.219Z,76.68
2018-03-23T04:09:22.087Z,76.96
2018-03-23T04:10:21.950Z,76.96
2018-03-23T04:11:21.815Z,76.40
2018-03-23T04:12:21.682Z,77.25
2018-03-23T04:13:21.544Z,77.44
2018-03-23T04:14:21.411Z,77.75
2018-03-23T04:15:21.276Z,78.56
2018-03-23T04:16:21.141Z,78.60
2018-03-23T04:17:21.008Z,79.17
2018-03-23T04:18:20.873Z,79.17
2018-03-23T04:19:20.736Z,79.74
2018-03-23T04:20:20.603Z,80.96
2018-03-23T04:21:20.465Z,81.53
2018-03-23T04:22:20.336Z,82.85
2018-03-23T04:23:20.200Z,84.36
2018-03-23T04:24:20.065Z,84.45
2018-03-23T04:25:19.930Z,84.36
2018-03-23T04:26:19.800Z,82.38
2018-03-23T04:27:19.661Z,82.10
2018-03-23T04:28:19.542Z,82.57
2018-03-23T04:29:19.391Z,83.75
2018-03-23T04:30:19.258Z,83.65
2018-03-23T04:31:19.126Z,82.81
2018-03-23T04:32:18.988Z,82.90
2018-03-23T04:33:18.853Z,82.62
2018-03-23T04:34:18.723Z,82.24
2018-03-23T04:35:18.584Z,82.53
2018-03-23T04:36:18.450Z,82.90
2018-03-23T04:37:18.317Z,83.09
2018-03-23T04:38:18.183Z,82.71
2018-03-23T04:39:18.045Z,81.96
2018-03-23T04:40:17.928Z,79.98
2018-03-23T04:41:17.776Z,78.66
2018-03-23T04:42:17.642Z,78.38
2018-03-23T04:43:17.508Z,78.04
2018-03-23T04:44:17.375Z,77.75
2018-03-23T04:45:17.237Z,77.72
2018-03-23T04:46:17.101Z,77.91
2018-03-23T04:47:16.968Z,78.56
2018-03-23T04:48:16.835Z,78.79
2018-03-23T04:49:16.700Z,79.83
2018-03-23T04:50:16.567Z,80.40
2018-03-23T04:51:16.430Z,82.10
2018-03-23T04:52:16.296Z,82.57
2018-03-23T04:53:16.161Z,82.57
2018-03-23T04:54:16.027Z,82.76
2018-03-23T04:55:15.890Z,82.95
2018-03-23T04:56:15.756Z,82.66
2018-03-23T04:57:15.621Z,82.00
2018-03-23T04:58:15.498Z,82.95
2018-03-23T04:59:15.412Z,82.57
2018-03-23T05:00:15.220Z,81.81
2018-03-23T05:01:15.092Z,81.91
2018-03-23T05:02:14.948Z,82.66
2018-03-23T05:03:14.810Z,82.66
2018-03-23T05:04:14.681Z,82.38
2018-03-23T05:05:14.547Z,82.57
2018-03-23T05:06:14.410Z,82.57
2018-03-23T05:07:14.275Z,83.33
2018-03-23T05:08:14.138Z,83.23
2018-03-23T05:09:14.011Z,83.80
2018-03-23T05:10:13.868Z,86.34
2018-03-23T05:11:13.735Z,87.00
2018-03-23T05:12:13.598Z,87.76
2018-03-23T05:13:13.465Z,87.66
2018-03-23T05:14:13.333Z,88.42
2018-03-23T05:15:13.198Z,89.08
2018-03-23T05:16:13.140Z,88.98
2018-03-23T05:17:12.927Z,89.08
2018-03-23T05:18:12.791Z,89.55
2018-03-23T05:19:12.662Z,89.17
2018-03-23T05:20:12.531Z,89.74
2018-03-23T05:21:12.391Z,88.89
2018-03-23T05:22:12.253Z,89.17
2018-03-23T05:23:12.118Z,89.64
2018-03-23T05:24:11.985Z,90.40
2018-03-23T05:25:11.852Z,90.50
2018-03-23T05:26:11.719Z,89.83
2018-03-23T05:27:11.583Z,89.64
2018-03-23T05:28:11.452Z,89.93
2018-03-23T05:29:11.315Z,89.36
2018-03-23T05:30:11.183Z,88.04
2018-03-23T05:31:11.068Z,87.66
2018-03-23T05:32:10.928Z,87.48
2018-03-23T05:33:10.777Z,87.19
2018-03-23T05:34:10.643Z,87.19
2018-03-23T05:35:10.509Z,86.25
2018-03-23T05:36:10.376Z,87.57
2018-03-23T05:37:10.241Z,87.76
2018-03-23T05:38:10.109Z,88.04
2018-03-23T05:39:09.975Z,87.95
2018-03-23T05:40:09.839Z,87.29
2018-03-23T05:41:09.703Z,87.29
2018-03-23T05:42:09.570Z,87.00
2018-03-23T05:43:09.436Z,86.25
2018-03-23T05:44:09.302Z,86.25
2018-03-23T05:45:09.168Z,85.92
2018-03-23T05:46:09.060Z,85.45
2018-03-23T05:47:08.904Z,85.30
2018-03-23T05:48:08.765Z,85.11
2018-03-23T05:49:08.631Z,84.64
2018-03-23T05:50:08.507Z,85.30
2018-03-23T05:51:08.362Z,86.91
2018-03-23T05:52:08.231Z,87.85
2018-03-23T05:53:08.096Z,88.23
2018-03-23T05:54:07.959Z,89.27
2018-03-23T05:55:07.832Z,89.36
2018-03-23T05:56:07.693Z,88.42
2018-03-23T05:57:07.556Z,88.32
2018-03-23T05:58:07.422Z,88.89
2018-03-23T05:59:07.288Z,89.08
2018-03-23T06:00:07.152Z,88.89
2018-03-23T06:01:07.020Z,88.51
2018-03-23T06:02:06.885Z,88.42
2018-03-23T06:03:06.752Z,89.36
2018-03-23T06:04:06.617Z,90.87
2018-03-23T06:05:06.483Z,89.93
2018-03-23T06:06:06.349Z,90.21
2018-03-23T06:07:06.214Z,90.50
2018-03-23T06:08:06.083Z,90.78
2018-03-23T06:09:05.947Z,91.25
2018-03-23T06:10:05.812Z,90.78
2018-03-23T06:11:05.679Z,91.44
2018-03-23T06:12:05.543Z,91.72
2018-03-23T06:13:05.410Z,91.63
2018-03-23T06:14:05.275Z,90.50
2018-03-23T06:15:05.139Z,90.12
2018-03-23T06:16:05.008Z,89.36
2018-03-23T06:17:04.873Z,88.04
2018-03-23T06:18:04.739Z,87.48
2018-03-23T06:19:04.606Z,87.29
2018-03-23T06:20:04.474Z,87.29
2018-03-23T06:21:04.337Z,87.57
2018-03-23T06:22:04.203Z,87.19
2018-03-23T06:23:04.069Z,86.72
2018-03-23T06:24:03.936Z,86.15
2018-03-23T06:25:03.802Z,84.64
2018-03-23T06:26:03.667Z,84.17
2018-03-23T06:27:03.545Z,84.08
2018-03-23T06:28:03.452Z,84.64
2018-03-23T06:29:03.265Z,84.92
2018-03-23T06:30:03.130Z,84.08
2018-03-23T06:31:02.997Z,84.74
2018-03-23T06:32:02.867Z,84.55
2018-03-23T06:33:02.737Z,85.40
2018-03-23T06:34:02.594Z,84.83
2018-03-23T06:35:02.463Z,84.92
2018-03-23T06:36:02.335Z,86.06
2018-03-23T06:37:02.198Z,86.34
2018-03-23T06:38:02.064Z,85.49
2018-03-23T06:39:01.943Z,85.02
2018-03-23T06:40:01.802Z,85.02
2018-03-23T06:41:01.659Z,83.98
2018-03-23T06:42:01.524Z,84.17
2018-03-23T06:43:01.390Z,83.23
2018-03-23T06:44:01.257Z,83.51
2018-03-23T06:45:01.123Z,83.51
2018-03-23T06:46:00.988Z,83.23
2018-03-23T06:47:00.852Z,85.02
2018-03-23T06:48:00.724Z,86.53
2018-03-23T06:49:00.585Z,87.38
2018-03-23T06:50:00.449Z,86.82
2018-03-23T06:51:00.316Z,86.72
2018-03-23T06:52:00.186Z,87.00
2018-03-23T06:53:00.050Z,87.19
2018-03-23T06:53:59.913Z,89.74
2018-03-23T06:54:59.780Z,90.78
2018-03-23T06:55:59.648Z,90.87
2018-03-23T06:56:59.512Z,90.50
2018-03-23T06:57:59.381Z,87.57
2018-03-23T06:58:59.246Z,85.87
2018-03-23T06:59:59.111Z,85.49
2018-03-23T07:00:58.977Z,84.36
2018-03-23T07:01:58.847Z,82.00
2018-03-23T07:02:58.710Z,81.05
2018-03-23T07:03:58.582Z,80.40
2018-03-23T07:04:58.441Z,81.15
2018-03-23T07:05:58.309Z,82.10
2018-03-23T07:06:58.174Z,83.61
2018-03-23T07:07:58.041Z,84.27
2018-03-23T07:08:57.912Z,84.92
2018-03-23T07:09:57.771Z,84.92
2018-03-23T07:10:57.645Z,85.02
2018-03-23T07:11:57.510Z,85.59
2018-03-23T07:12:57.371Z,86.86
2018-03-23T07:13:57.236Z,87.62
2018-03-23T07:14:57.104Z,87.14
2018-03-23T07:15:56.974Z,89.69
2018-03-23T07:16:56.840Z,90.16
2018-03-23T07:17:56.703Z,89.50
2018-03-23T07:18:56.565Z,89.22
2018-03-23T07:19:56.433Z,88.46
2018-03-23T07:20:56.300Z,88.46
2018-03-23T07:21:56.199Z,89.31
2018-03-23T07:22:56.037Z,90.45
2018-03-23T07:23:55.900Z,89.59
2018-03-23T07:24:55.770Z,89.31
2018-03-23T07:25:55.632Z,89.03
2018-03-23T07:26:55.499Z,89.03
2018-03-23T07:27:55.364Z,89.12
2018-03-23T07:28:55.229Z,88.37
2018-03-23T07:29:55.097Z,88.93
2018-03-23T07:30:54.962Z,89.69
2018-03-23T07:31:54.830Z,89.78
2018-03-23T07:32:54.721Z,91.86
2018-03-23T07:33:54.564Z,92.43
2018-03-23T07:34:54.427Z,91.77
2018-03-23T07:35:54.297Z,91.49
2018-03-23T07:36:54.162Z,90.82
2018-03-23T07:37:54.028Z,91.39
2018-03-23T07:38:53.899Z,93.66
2018-03-23T07:39:53.765Z,91.39
2018-03-23T07:40:53.637Z,90.64
2018-03-23T07:41:53.496Z,91.20
2018-03-23T07:42:53.366Z,90.73
2018-03-23T07:43:53.232Z,89.12
2018-03-23T07:44:53.096Z,89.22
2018-03-23T07:45:52.963Z,87.99
2018-03-23T07:46:52.834Z,87.90
2018-03-23T07:47:52.701Z,87.24
2018-03-23T07:48:52.566Z,87.05
2018-03-23T07:49:52.433Z,86.38
2018-03-23T07:50:52.302Z,85.91
2018-03-23T07:51:52.222Z,85.25
2018-03-23T07:52:52.032Z,84.78
2018-03-23T07:53:51.898Z,85.53
2018-03-23T07:54:51.766Z,85.44
2018-03-23T07:55:51.634Z,86.10
2018-03-23T07:56:51.500Z,86.01
2018-03-23T07:57:51.372Z,84.97
2018-03-23T07:58:51.232Z,84.03
2018-03-23T07:59:51.103Z,84.69
2018-03-23T08:00:50.963Z,86.10
2018-03-23T08:01:50.832Z,85.44
2018-03-23T08:02:50.703Z,85.63
2018-03-23T08:03:50.566Z,84.97
2018-03-23T08:04:50.430Z,86.10
2018-03-23T08:05:50.300Z,88.56
2018-03-23T08:06:50.207Z,87.24
2018-03-23T08:07:50.034Z,85.53
2018-03-23T08:08:49.898Z,86.57
2018-03-23T08:09:49.784Z,86.38
2018-03-23T08:10:49.632Z,86.29
2018-03-23T08:11:49.498Z,86.10
2018-03-23T08:12:49.365Z,87.80
2018-03-23T08:13:49.230Z,88.84
2018-03-23T08:14:49.095Z,88.37
2018-03-23T08:15:48.964Z,88.65
2018-03-23T08:16:48.832Z,89.31
2018-03-23T08:17:48.698Z,88.37
2018-03-23T08:18:48.562Z,87.99
2018-03-23T08:19:48.431Z,87.90
2018-03-23T08:20:48.299Z,88.84
2018-03-23T08:21:48.163Z,88.56
2018-03-23T08:22:48.031Z,89.12
2018-03-23T08:23:47.897Z,88.93
2018-03-23T08:24:47.767Z,88.37
2018-03-23T08:25:47.630Z,87.33
2018-03-23T08:26:47.501Z,88.37
2018-03-23T08:27:47.370Z,88.75
2018-03-23T08:28:47.238Z,88.65
2018-03-23T08:29:47.099Z,89.22
2018-03-23T08:30:46.966Z,90.54
2018-03-23T08:31:46.833Z,92.38
2018-03-23T08:32:46.698Z,89.97
2018-03-23T08:33:46.565Z,89.97
2018-03-23T08:34:46.437Z,89.88
2018-03-23T08:35:46.308Z,90.54
2018-03-23T08:36:46.167Z,90.64
2018-03-23T08:37:46.043Z,93.42
2018-03-23T08:38:45.898Z,93.80
2018-03-23T08:39:45.768Z,93.89
2018-03-23T08:40:45.637Z,94.03
2018-03-23T08:41:45.556Z,93.23
2018-03-23T08:42:45.372Z,94.08
2018-03-23T08:43:45.237Z,94.18
2018-03-23T08:44:45.232Z,94.65
2018-03-23T08:45:44.978Z,95.78
2018-03-23T08:46:44.837Z,97.20
2018-03-23T08:47:44.708Z,96.54
2018-03-23T08:48:44.572Z,95.21
2018-03-23T08:49:44.440Z,95.97
2018-03-23T08:50:44.309Z,99.33
2018-03-23T08:51:44.173Z,99.33
2018-03-23T08:52:44.083Z,99.99
2018-03-23T08:53:43.912Z,99.99
2018-03-23T08:54:43.780Z,99.99
2018-03-23T08:55:43.649Z,99.89
2018-03-23T08:56:43.515Z,99.99
2018-03-23T08:57:43.382Z,99.99
2018-03-23T08:58:43.260Z,99.89
2018-03-23T08:59:43.120Z,99.99
2018-03-23T09:00:42.988Z,99.99
2018-03-23T09:01:42.859Z,99.99
2018-03-23T09:02:42.724Z,99.99
2018-03-23T09:03:42.594Z,99.99
2018-03-23T09:04:42.477Z,99.99
2018-03-23T09:05:42.331Z,99.99
2018-03-23T09:06:42.200Z,99.99
2018-03-23T09:07:42.071Z,99.99
2018-03-23T09:08:41.937Z,99.99
2018-03-23T09:09:41.836Z,99.99
2018-03-23T09:10:41.679Z,99.99
2018-03-23T09:11:41.546Z,99.99
2018-03-23T09:12:41.416Z,99.99
2018-03-23T09:13:41.288Z,99.99
2018-03-23T09:14:41.156Z,99.99
2018-03-23T09:15:41.025Z,99.99
2018-03-23T09:16:40.922Z,99.99
2018-03-23T09:17:40.767Z,99.99
2018-03-23T09:18:40.635Z,99.19
2018-03-23T09:19:40.510Z,99.99
2018-03-23T09:20:40.374Z,99.99
2018-03-23T09:21:40.252Z,99.99
2018-03-23T09:22:40.118Z,99.99
2018-03-23T09:23:39.988Z,99.99
2018-03-23T09:24:39.858Z,99.99
2018-03-23T09:25:39.725Z,99.99
2018-03-23T09:26:39.605Z,99.99
2018-03-23T09:27:39.469Z,99.99
2018-03-23T09:28:39.340Z,99.99
2018-03-23T09:29:39.215Z,99.99
2018-03-23T09:30:39.078Z,99.99
2018-03-23T09:31:38.950Z,99.99
2018-03-23T09:32:38.820Z,99.99
2018-03-23T09:33:38.688Z,99.99
2018-03-23T09:34:38.557Z,99.99
2018-03-23T09:35:38.429Z,99.99
2018-03-23T09:36:38.298Z,99.99
2018-03-23T09:37:38.170Z,99.99
2018-03-23T09:38:38.038Z,99.99
2018-03-23T09:39:37.907Z,99.99
2018-03-23T09:40:37.779Z,99.99
2018-03-23T09:41:37.648Z,99.99
2018-03-23T09:42:37.522Z,99.99
2018-03-23T09:43:37.387Z,99.99
2018-03-23T09:44:37.292Z,99.99
2018-03-23T09:45:37.128Z,99.99
2018-03-23T09:46:36.998Z,99.99
2018-03-23T09:47:36.868Z,99.99
2018-03-23T09:48:36.795Z,99.99
2018-03-23T09:49:36.607Z,99.99
2018-03-23T09:50:36.481Z,99.99
2018-03-23T09:51:36.347Z,99.99
2018-03-23T09:52:36.273Z,99.99
2018-03-23T09:53:36.089Z,99.99
2018-03-23T09:54:35.964Z,99.99
2018-03-23T09:55:35.833Z,99.99
2018-03-23T09:56:35.705Z,99.99
2018-03-23T09:57:35.571Z,99.99
2018-03-23T09:58:35.442Z,99.99
2018-03-23T09:59:35.309Z,99.99
2018-03-23T10:00:35.178Z,99.99
2018-03-23T10:01:35.051Z,99.99
2018-03-23T10:02:34.953Z,99.99
2018-03-23T10:03:34.790Z,99.99
2018-03-23T10:04:34.658Z,99.99
2018-03-23T10:05:34.529Z,99.99
2018-03-23T10:06:34.399Z,99.99
2018-03-23T10:07:34.274Z,99.99
2018-03-23T10:08:34.136Z,99.99
2018-03-23T10:09:34.007Z,99.99
2018-03-23T10:10:33.878Z,99.99
2018-03-23T10:11:33.746Z,99.99
2018-03-23T10:12:33.615Z,99.99
2018-03-23T10:13:33.484Z,99.99
2018-03-23T10:14:33.355Z,99.99
2018-03-23T10:15:33.226Z,99.99
2018-03-23T10:16:33.097Z,99.99
2018-03-23T10:17:32.964Z,99.99
2018-03-23T10:18:32.833Z,99.99
2018-03-23T10:19:32.703Z,99.99
2018-03-23T10:20:32.583Z,99.99
2018-03-23T10:21:32.441Z,99.99
2018-03-23T10:22:32.311Z,99.99
2018-03-23T10:23:32.189Z,99.99
2018-03-23T10:24:32.050Z,99.99
2018-03-23T10:25:31.919Z,99.99
2018-03-23T10:26:31.794Z,99.99
2018-03-23T10:27:31.658Z,99.99
2018-03-23T10:28:31.525Z,99.99
2018-03-23T10:29:31.398Z,99.99
2018-03-23T10:30:31.266Z,99.99
2018-03-23T10:31:31.142Z,99.99
2018-03-23T10:32:31.003Z,99.99
2018-03-23T10:33:30.886Z,99.99
2018-03-23T10:34:30.746Z,99.99
2018-03-23T10:35:30.659Z,99.99
2018-03-23T10:36:30.482Z,99.99
2018-03-23T10:37:30.354Z,99.99
2018-03-23T10:38:30.228Z,99.99
2018-03-23T10:39:30.094Z,99.99
2018-03-23T10:40:29.962Z,99.99
2018-03-23T10:41:29.837Z,99.99
2018-03-23T10:42:29.704Z,99.99
2018-03-23T10:43:29.572Z,99.99
2018-03-23T10:44:29.442Z,99.99
2018-03-23T10:45:29.310Z,99.99
2018-03-23T10:46:29.182Z,99.99
2018-03-23T10:47:29.054Z,99.99
2018-03-23T10:48:28.927Z,99.99
2018-03-23T10:49:28.792Z,99.99
2018-03-23T10:50:28.663Z,99.99
2018-03-23T10:51:28.532Z,99.99
2018-03-23T10:52:28.404Z,99.99
2018-03-23T10:53:28.332Z,99.99
2018-03-23T10:54:28.142Z,99.99
2018-03-23T10:55:28.013Z,99.99
2018-03-23T10:56:27.884Z,99.99
2018-03-23T10:57:27.764Z,99.99
2018-03-23T10:58:27.627Z,99.99
2018-03-23T10:59:27.497Z,99.99
2018-03-23T11:00:27.373Z,99.99
2018-03-23T11:01:27.240Z,99.99
2018-03-23T11:02:27.106Z,99.99
2018-03-23T11:03:26.990Z,99.99
2018-03-23T11:04:26.848Z,99.99
2018-03-23T11:05:26.720Z,99.99
2018-03-23T11:06:26.591Z,99.99
2018-03-23T11:07:26.460Z,99.99
2018-03-23T11:08:26.332Z,99.99
2018-03-23T11:09:26.202Z,99.99
2018-03-23T11:10:26.074Z,99.99
2018-03-23T11:11:25.950Z,99.99
2018-03-23T11:12:25.817Z,99.99
2018-03-23T11:13:25.689Z,99.99
2018-03-23T11:14:25.557Z,99.99
2018-03-23T11:15:25.428Z,99.99
2018-03-23T11:16:25.294Z,99.99
2018-03-23T11:17:25.167Z,99.99
2018-03-23T11:18:25.048Z,99.99
2018-03-23T11:19:24.906Z,99.99
2018-03-23T11:20:24.778Z,99.99
2018-03-23T11:21:24.652Z,99.99
2018-03-23T11:22:24.528Z,98.72
2018-03-23T11:23:24.390Z,96.26
2018-03-23T11:24:24.300Z,94.46
2018-03-23T11:25:24.130Z,96.83
2018-03-23T11:26:24.005Z,97.20
2018-03-23T11:27:23.873Z,97.96
2018-03-23T11:28:23.746Z,99.66
2018-03-23T11:29:23.615Z,99.66
2018-03-23T11:30:23.486Z,99.99
2018-03-23T11:31:23.358Z,99.99
2018-03-23T11:32:23.229Z,99.99
2018-03-23T11:33:23.100Z,99.99
2018-03-23T11:34:22.969Z,97.58
2018-03-23T11:35:22.842Z,97.30
2018-03-23T11:36:22.712Z,97.87
2018-03-23T11:37:22.584Z,99.29
2018-03-23T11:38:22.454Z,98.44
2018-03-23T11:39:22.326Z,95.88
2018-03-23T11:40:22.196Z,96.92
2018-03-23T11:41:22.070Z,96.40
2018-03-23T11:42:21.940Z,95.17
2018-03-23T11:43:21.814Z,93.89
2018-03-23T11:44:21.725Z,92.90
2018-03-23T11:45:21.557Z,91.00
2018-03-23T11:46:21.453Z,94.04
2018-03-23T11:47:21.302Z,91.86
2018-03-23T11:48:21.168Z,91.76
2018-03-23T11:49:21.041Z,93.94
2018-03-23T11:50:20.914Z,92.80
2018-03-23T11:51:20.786Z,92.61
2018-03-23T11:52:20.660Z,95.26
2018-03-23T11:53:20.530Z,95.69
2018-03-23T11:54:20.402Z,97.35
2018-03-23T11:55:20.273Z,95.83
2018-03-23T11:56:20.146Z,94.42
2018-03-23T11:57:20.180Z,94.04
2018-03-23T11:58:19.891Z,93.94
2018-03-23T11:59:19.759Z,90.81
2018-03-23T12:00:19.632Z,90.20
2018-03-23T12:01:19.505Z,88.78
2018-03-23T12:02:19.378Z,88.45
2018-03-23T12:03:19.248Z,88.21
2018-03-23T12:04:19.120Z,86.31
2018-03-23T12:05:18.990Z,86.69
2018-03-23T12:06:18.864Z,81.48
2018-03-23T12:07:18.736Z,78.54
2018-03-23T12:08:18.610Z,79.63
2018-03-23T12:09:18.480Z,74.41
2018-03-23T12:10:18.353Z,72.14
2018-03-23T12:11:18.226Z,71.66
2018-03-23T12:12:18.100Z,71.76
2018-03-23T12:13:17.975Z,73.24
2018-03-23T12:14:17.914Z,71.91
2018-03-23T12:15:17.720Z,70.01
2018-03-23T12:16:17.589Z,71.85
2018-03-23T12:17:17.464Z,72.04
2018-03-23T12:18:17.335Z,70.72
2018-03-23T12:19:17.210Z,71.95
2018-03-23T12:20:17.083Z,72.61
2018-03-23T12:21:16.961Z,72.00
2018-03-23T12:22:16.828Z,71.72
2018-03-23T12:23:16.701Z,71.81
2018-03-23T12:24:16.577Z,73.24
2018-03-23T12:25:16.448Z,74.28
2018-03-23T12:26:16.320Z,73.33
2018-03-23T12:27:16.195Z,71.72
2018-03-23T12:28:16.066Z,70.39
2018-03-23T12:29:15.937Z,70.87
2018-03-23T12:30:15.813Z,69.82
2018-03-23T12:31:15.685Z,68.88
2018-03-23T12:32:15.556Z,69.54
2018-03-23T12:33:15.429Z,68.40
2018-03-23T12:34:15.305Z,68.40
2018-03-23T12:35:15.181Z,69.03
2018-03-23T12:36:15.043Z,70.45
2018-03-23T12:37:14.920Z,73.43
2018-03-23T12:38:14.795Z,71.59
2018-03-23T12:39:14.666Z,70.39
2018-03-23T12:40:14.538Z,70.26
2018-03-23T12:41:14.409Z,71.02
2018-03-23T12:42:14.280Z,71.97
2018-03-23T12:43:14.152Z,71.72
2018-03-23T12:44:14.022Z,70.30
2018-03-23T12:45:13.898Z,69.54
2018-03-23T12:46:13.770Z,68.91
2018-03-23T12:47:13.641Z,68.54
2018-03-23T12:48:13.515Z,67.96
2018-03-23T12:49:13.387Z,66.45
2018-03-23T12:50:13.264Z,67.33
2018-03-23T12:51:13.139Z,67.05